Ashland, Nebraska
Current Conditions -  °F | °C
As of 8:55 AM on Monday 24 Nov 2014 (Local Time) from KMLE Reporting Station
Overcast Overcast  
Wind Chill: 20°   Ceiling: 2500
Heat Index: 29°   Visibility: 10mi
Dew Point: 19°   Wind: 12mph
Humidity: 66%   Direction: 310°NW
Pressure: 29.69"   Gusts: 18mph
Location:  41.04°N, 96.37°W
Report Text: KMLE 241455Z AUTO 31010G16KT 10SM OVC025 M01/M07 A2969 RMK AO2 T10151071
Loading
Personal Weather Stations






























Interactive Weather Map New forecast layout! Learn more

10-Day Weather Forecast

Advertisements
Track Severe Weather on mobile